sensor_id;sensor_type;location;lat;lon;timestamp;P1;durP1;ratioP1;P2;durP2;ratioP2
50429;SDS011;36359;41.556;-8.418;2023-04-21T00:01:31;8.00;;;3.90;;
50429;SDS011;36359;41.556;-8.418;2023-04-21T00:03:57;9.15;;;3.80;;
50429;SDS011;36359;41.556;-8.418;2023-04-21T00:06:23;8.10;;;3.67;;
50429;SDS011;36359;41.556;-8.418;2023-04-21T00:08:51;8.38;;;3.83;;
50429;SDS011;36359;41.556;-8.418;2023-04-21T00:11:16;9.85;;;4.05;;
50429;SDS011;36359;41.556;-8.418;2023-04-21T00:13:42;11.95;;;4.43;;
50429;SDS011;36359;41.556;-8.418;2023-04-21T00:16:08;9.55;;;4.15;;
50429;SDS011;36359;41.556;-8.418;2023-04-21T00:18:35;10.10;;;4.40;;
50429;SDS011;36359;41.556;-8.418;2023-04-21T00:21:00;8.93;;;3.92;;
50429;SDS011;36359;41.556;-8.418;2023-04-21T00:23:26;9.15;;;3.75;;
50429;SDS011;36359;41.556;-8.418;2023-04-21T00:25:52;10.30;;;4.30;;
50429;SDS011;36359;41.556;-8.418;2023-04-21T00:28:17;9.05;;;4.00;;
50429;SDS011;36359;41.556;-8.418;2023-04-21T00:30:43;14.02;;;5.07;;
50429;SDS011;36359;41.556;-8.418;2023-04-21T00:33:09;14.40;;;4.82;;
50429;SDS011;36359;41.556;-8.418;2023-04-21T00:35:35;10.43;;;4.00;;
50429;SDS011;36359;41.556;-8.418;2023-04-21T00:38:00;8.18;;;3.67;;
50429;SDS011;36359;41.556;-8.418;2023-04-21T00:40:26;9.98;;;3.22;;
50429;SDS011;36359;41.556;-8.418;2023-04-21T00:42:52;8.35;;;3.70;;
50429;SDS011;36359;41.556;-8.418;2023-04-21T00:45:18;8.75;;;3.35;;
50429;SDS011;36359;41.556;-8.418;2023-04-21T00:47:44;7.75;;;4.13;;
50429;SDS011;36359;41.556;-8.418;2023-04-21T00:50:10;12.70;;;3.72;;
50429;SDS011;36359;41.556;-8.418;2023-04-21T00:52:38;11.77;;;4.10;;
50429;SDS011;36359;41.556;-8.418;2023-04-21T00:55:06;11.40;;;4.20;;
50429;SDS011;36359;41.556;-8.418;2023-04-21T00:57:32;9.48;;;3.75;;
50429;SDS011;36359;41.556;-8.418;2023-04-21T01:00:01;10.07;;;4.55;;
50429;SDS011;36359;41.556;-8.418;2023-04-21T01:02:28;10.18;;;3.97;;
50429;SDS011;36359;41.556;-8.418;2023-04-21T01:04:54;11.82;;;4.18;;
50429;SDS011;36359;41.556;-8.418;2023-04-21T01:07:20;9.55;;;4.07;;
50429;SDS011;36359;41.556;-8.418;2023-04-21T01:09:46;10.43;;;5.00;;
50429;SDS011;36359;41.556;-8.418;2023-04-21T01:12:11;12.88;;;6.15;;
50429;SDS011;36359;41.556;-8.418;2023-04-21T01:14:38;16.92;;;8.57;;
50429;SDS011;36359;41.556;-8.418;2023-04-21T01:17:05;15.20;;;7.75;;
50429;SDS011;36359;41.556;-8.418;2023-04-21T01:19:32;12.07;;;6.45;;
50429;SDS011;36359;41.556;-8.418;2023-04-21T01:28:31;13.68;;;5.43;;
50429;SDS011;36359;41.556;-8.418;2023-04-21T01:34:03;15.30;;;5.45;;
50429;SDS011;36359;41.556;-8.418;2023-04-21T01:36:29;12.38;;;5.05;;
50429;SDS011;36359;41.556;-8.418;2023-04-21T01:38:55;9.18;;;4.22;;
50429;SDS011;36359;41.556;-8.418;2023-04-21T01:41:21;8.95;;;4.78;;
50429;SDS011;36359;41.556;-8.418;2023-04-21T01:43:47;9.05;;;3.60;;
50429;SDS011;36359;41.556;-8.418;2023-04-21T01:46:12;8.70;;;4.10;;
50429;SDS011;36359;41.556;-8.418;2023-04-21T01:48:38;8.95;;;4.65;;
50429;SDS011;36359;41.556;-8.418;2023-04-21T01:51:04;10.48;;;4.60;;
50429;SDS011;36359;41.556;-8.418;2023-04-21T01:53:30;9.77;;;4.47;;
50429;SDS011;36359;41.556;-8.418;2023-04-21T01:55:56;8.32;;;3.83;;
50429;SDS011;36359;41.556;-8.418;2023-04-21T01:58:22;10.55;;;4.30;;
50429;SDS011;36359;41.556;-8.418;2023-04-21T02:00:47;11.30;;;4.20;;
50429;SDS011;36359;41.556;-8.418;2023-04-21T02:03:16;7.53;;;3.85;;
50429;SDS011;36359;41.556;-8.418;2023-04-21T02:08:10;9.70;;;4.13;;
50429;SDS011;36359;41.556;-8.418;2023-04-21T02:10:35;8.50;;;3.63;;
50429;SDS011;36359;41.556;-8.418;2023-04-21T02:13:01;11.10;;;4.22;;
50429;SDS011;36359;41.556;-8.418;2023-04-21T02:15:28;10.63;;;3.90;;
50429;SDS011;36359;41.556;-8.418;2023-04-21T02:17:53;10.48;;;4.60;;
50429;SDS011;36359;41.556;-8.418;2023-04-21T02:20:19;9.40;;;4.03;;
50429;SDS011;36359;41.556;-8.418;2023-04-21T02:22:45;15.95;;;4.85;;
50429;SDS011;36359;41.556;-8.418;2023-04-21T02:25:10;11.43;;;5.35;;
50429;SDS011;36359;41.556;-8.418;2023-04-21T02:27:37;8.25;;;4.15;;
50429;SDS011;36359;41.556;-8.418;2023-04-21T02:30:03;13.07;;;4.57;;
50429;SDS011;36359;41.556;-8.418;2023-04-21T02:32:29;7.85;;;4.30;;
50429;SDS011;36359;41.556;-8.418;2023-04-21T02:34:55;8.75;;;4.43;;
50429;SDS011;36359;41.556;-8.418;2023-04-21T02:37:22;11.65;;;4.60;;
50429;SDS011;36359;41.556;-8.418;2023-04-21T02:39:51;9.45;;;3.67;;
50429;SDS011;36359;41.556;-8.418;2023-04-21T02:42:17;7.88;;;3.78;;
50429;SDS011;36359;41.556;-8.418;2023-04-21T02:44:42;10.32;;;4.90;;
50429;SDS011;36359;41.556;-8.418;2023-04-21T02:47:08;10.88;;;4.63;;
50429;SDS011;36359;41.556;-8.418;2023-04-21T02:49:38;8.80;;;4.45;;
50429;SDS011;36359;41.556;-8.418;2023-04-21T02:52:05;11.20;;;4.15;;
50429;SDS011;36359;41.556;-8.418;2023-04-21T02:54:30;9.10;;;4.15;;
50429;SDS011;36359;41.556;-8.418;2023-04-21T02:56:56;10.35;;;4.82;;
50429;SDS011;36359;41.556;-8.418;2023-04-21T02:59:22;9.77;;;4.80;;
50429;SDS011;36359;41.556;-8.418;2023-04-21T03:01:47;9.43;;;5.22;;
50429;SDS011;36359;41.556;-8.418;2023-04-21T03:04:13;12.38;;;6.00;;
50429;SDS011;36359;41.556;-8.418;2023-04-21T03:06:39;13.80;;;5.55;;
50429;SDS011;36359;41.556;-8.418;2023-04-21T03:09:05;12.95;;;6.07;;
50429;SDS011;36359;41.556;-8.418;2023-04-21T03:11:31;14.25;;;6.45;;
50429;SDS011;36359;41.556;-8.418;2023-04-21T03:13:56;13.63;;;6.25;;
50429;SDS011;36359;41.556;-8.418;2023-04-21T03:16:22;14.88;;;7.28;;
50429;SDS011;36359;41.556;-8.418;2023-04-21T03:18:48;7.80;;;5.18;;
50429;SDS011;36359;41.556;-8.418;2023-04-21T03:21:14;12.10;;;6.78;;
50429;SDS011;36359;41.556;-8.418;2023-04-21T03:23:40;11.85;;;7.60;;
50429;SDS011;36359;41.556;-8.418;2023-04-21T03:26:06;10.98;;;6.80;;
50429;SDS011;36359;41.556;-8.418;2023-04-21T03:28:33;15.57;;;8.23;;
50429;SDS011;36359;41.556;-8.418;2023-04-21T03:31:01;17.65;;;8.65;;
50429;SDS011;36359;41.556;-8.418;2023-04-21T03:33:26;13.25;;;8.20;;
50429;SDS011;36359;41.556;-8.418;2023-04-21T03:35:52;12.75;;;7.95;;
50429;SDS011;36359;41.556;-8.418;2023-04-21T03:38:18;11.43;;;7.25;;
50429;SDS011;36359;41.556;-8.418;2023-04-21T03:40:44;15.07;;;8.70;;
50429;SDS011;36359;41.556;-8.418;2023-04-21T03:43:10;11.13;;;6.80;;
50429;SDS011;36359;41.556;-8.418;2023-04-21T03:45:37;12.13;;;8.15;;
50429;SDS011;36359;41.556;-8.418;2023-04-21T03:48:03;12.85;;;7.18;;
50429;SDS011;36359;41.556;-8.418;2023-04-21T03:50:28;12.63;;;7.78;;
50429;SDS011;36359;41.556;-8.418;2023-04-21T03:52:54;11.57;;;6.63;;
50429;SDS011;36359;41.556;-8.418;2023-04-21T03:55:20;15.65;;;8.70;;
50429;SDS011;36359;41.556;-8.418;2023-04-21T03:57:46;11.98;;;7.50;;
50429;SDS011;36359;41.556;-8.418;2023-04-21T04:00:11;13.10;;;7.45;;
50429;SDS011;36359;41.556;-8.418;2023-04-21T04:02:38;13.82;;;8.02;;
50429;SDS011;36359;41.556;-8.418;2023-04-21T04:05:04;11.50;;;6.97;;
50429;SDS011;36359;41.556;-8.418;2023-04-21T04:07:33;11.93;;;6.10;;
50429;SDS011;36359;41.556;-8.418;2023-04-21T04:09:59;11.27;;;6.25;;
50429;SDS011;36359;41.556;-8.418;2023-04-21T04:12:25;13.93;;;6.38;;
50429;SDS011;36359;41.556;-8.418;2023-04-21T04:14:51;10.05;;;4.88;;
50429;SDS011;36359;41.556;-8.418;2023-04-21T04:17:16;11.13;;;5.85;;
50429;SDS011;36359;41.556;-8.418;2023-04-21T04:19:42;10.73;;;5.35;;
50429;SDS011;36359;41.556;-8.418;2023-04-21T04:22:09;8.80;;;4.72;;
50429;SDS011;36359;41.556;-8.418;2023-04-21T04:24:34;14.25;;;6.60;;
50429;SDS011;36359;41.556;-8.418;2023-04-21T04:27:00;12.07;;;6.00;;
50429;SDS011;36359;41.556;-8.418;2023-04-21T04:29:27;9.98;;;5.47;;
50429;SDS011;36359;41.556;-8.418;2023-04-21T04:31:53;11.45;;;5.38;;
50429;SDS011;36359;41.556;-8.418;2023-04-21T04:34:20;9.98;;;4.70;;
50429;SDS011;36359;41.556;-8.418;2023-04-21T04:36:47;11.52;;;5.60;;
50429;SDS011;36359;41.556;-8.418;2023-04-21T04:39:17;13.77;;;5.88;;
50429;SDS011;36359;41.556;-8.418;2023-04-21T04:41:42;10.35;;;5.22;;
50429;SDS011;36359;41.556;-8.418;2023-04-21T04:47:30;10.93;;;4.47;;
50429;SDS011;36359;41.556;-8.418;2023-04-21T04:49:55;8.85;;;4.60;;
50429;SDS011;36359;41.556;-8.418;2023-04-21T04:52:21;11.95;;;5.20;;
50429;SDS011;36359;41.556;-8.418;2023-04-21T04:54:47;11.05;;;5.40;;
50429;SDS011;36359;41.556;-8.418;2023-04-21T04:57:12;10.63;;;5.10;;
50429;SDS011;36359;41.556;-8.418;2023-04-21T04:59:38;11.45;;;5.00;;
50429;SDS011;36359;41.556;-8.418;2023-04-21T05:02:04;10.32;;;4.60;;
50429;SDS011;36359;41.556;-8.418;2023-04-21T05:04:32;9.48;;;5.10;;
50429;SDS011;36359;41.556;-8.418;2023-04-21T05:06:58;8.85;;;4.65;;
50429;SDS011;36359;41.556;-8.418;2023-04-21T05:09:24;9.27;;;5.30;;
50429;SDS011;36359;41.556;-8.418;2023-04-21T05:11:50;14.75;;;5.65;;
50429;SDS011;36359;41.556;-8.418;2023-04-21T05:14:15;10.80;;;5.25;;
50429;SDS011;36359;41.556;-8.418;2023-04-21T05:16:44;7.97;;;4.57;;
50429;SDS011;36359;41.556;-8.418;2023-04-21T05:19:10;10.70;;;4.93;;
50429;SDS011;36359;41.556;-8.418;2023-04-21T05:21:36;7.77;;;4.77;;
50429;SDS011;36359;41.556;-8.418;2023-04-21T05:24:01;9.50;;;4.55;;
50429;SDS011;36359;41.556;-8.418;2023-04-21T05:26:27;9.95;;;4.53;;
50429;SDS011;36359;41.556;-8.418;2023-04-21T05:28:54;12.70;;;4.47;;
50429;SDS011;36359;41.556;-8.418;2023-04-21T05:31:21;9.35;;;4.60;;
50429;SDS011;36359;41.556;-8.418;2023-04-21T05:33:47;8.55;;;4.72;;
50429;SDS011;36359;41.556;-8.418;2023-04-21T05:36:12;10.73;;;4.55;;
50429;SDS011;36359;41.556;-8.418;2023-04-21T05:38:38;10.27;;;5.10;;
50429;SDS011;36359;41.556;-8.418;2023-04-21T05:41:04;9.50;;;3.72;;
50429;SDS011;36359;41.556;-8.418;2023-04-21T05:43:31;7.30;;;4.32;;
50429;SDS011;36359;41.556;-8.418;2023-04-21T05:46:00;10.48;;;4.13;;
50429;SDS011;36359;41.556;-8.418;2023-04-21T05:48:26;8.13;;;4.60;;
50429;SDS011;36359;41.556;-8.418;2023-04-21T05:50:53;13.43;;;4.63;;
50429;SDS011;36359;41.556;-8.418;2023-04-21T05:53:19;11.15;;;4.78;;
50429;SDS011;36359;41.556;-8.418;2023-04-21T05:55:45;9.90;;;3.80;;
50429;SDS011;36359;41.556;-8.418;2023-04-21T05:58:11;9.38;;;4.03;;
50429;SDS011;36359;41.556;-8.418;2023-04-21T06:00:37;9.40;;;4.63;;
50429;SDS011;36359;41.556;-8.418;2023-04-21T06:03:02;8.27;;;4.47;;
50429;SDS011;36359;41.556;-8.418;2023-04-21T06:05:28;11.25;;;6.43;;
50429;SDS011;36359;41.556;-8.418;2023-04-21T06:07:54;17.48;;;8.50;;
50429;SDS011;36359;41.556;-8.418;2023-04-21T06:10:19;23.52;;;10.00;;
50429;SDS011;36359;41.556;-8.418;2023-04-21T06:12:45;17.83;;;8.65;;
50429;SDS011;36359;41.556;-8.418;2023-04-21T06:15:11;19.60;;;8.80;;
50429;SDS011;36359;41.556;-8.418;2023-04-21T06:17:37;18.27;;;8.75;;
50429;SDS011;36359;41.556;-8.418;2023-04-21T06:20:02;17.55;;;8.25;;
50429;SDS011;36359;41.556;-8.418;2023-04-21T06:22:28;11.35;;;6.03;;
50429;SDS011;36359;41.556;-8.418;2023-04-21T06:24:54;16.08;;;7.28;;
50429;SDS011;36359;41.556;-8.418;2023-04-21T06:27:19;16.95;;;7.38;;
50429;SDS011;36359;41.556;-8.418;2023-04-21T06:29:45;13.88;;;6.68;;
50429;SDS011;36359;41.556;-8.418;2023-04-21T06:32:11;15.52;;;6.85;;
50429;SDS011;36359;41.556;-8.418;2023-04-21T06:34:37;14.10;;;6.57;;
50429;SDS011;36359;41.556;-8.418;2023-04-21T06:37:03;15.07;;;5.60;;
50429;SDS011;36359;41.556;-8.418;2023-04-21T06:39:29;12.40;;;6.28;;
50429;SDS011;36359;41.556;-8.418;2023-04-21T06:41:55;12.98;;;5.22;;
50429;SDS011;36359;41.556;-8.418;2023-04-21T06:44:25;11.17;;;4.97;;
50429;SDS011;36359;41.556;-8.418;2023-04-21T06:46:50;8.43;;;4.70;;
50429;SDS011;36359;41.556;-8.418;2023-04-21T06:49:16;9.05;;;4.88;;
50429;SDS011;36359;41.556;-8.418;2023-04-21T06:51:42;8.07;;;4.63;;
50429;SDS011;36359;41.556;-8.418;2023-04-21T06:54:07;11.27;;;4.85;;
50429;SDS011;36359;41.556;-8.418;2023-04-21T06:56:33;10.70;;;4.95;;
50429;SDS011;36359;41.556;-8.418;2023-04-21T06:58:59;9.70;;;4.35;;
50429;SDS011;36359;41.556;-8.418;2023-04-21T07:01:25;10.40;;;5.13;;
50429;SDS011;36359;41.556;-8.418;2023-04-21T07:03:50;12.98;;;5.05;;
50429;SDS011;36359;41.556;-8.418;2023-04-21T07:06:17;10.07;;;4.95;;
50429;SDS011;36359;41.556;-8.418;2023-04-21T07:08:43;13.55;;;5.00;;
50429;SDS011;36359;41.556;-8.418;2023-04-21T07:11:09;8.60;;;4.65;;
50429;SDS011;36359;41.556;-8.418;2023-04-21T07:13:35;11.32;;;5.30;;
50429;SDS011;36359;41.556;-8.418;2023-04-21T07:16:01;7.65;;;4.57;;
50429;SDS011;36359;41.556;-8.418;2023-04-21T07:18:26;13.40;;;6.00;;
50429;SDS011;36359;41.556;-8.418;2023-04-21T07:20:52;11.02;;;5.03;;
50429;SDS011;36359;41.556;-8.418;2023-04-21T07:23:18;12.20;;;6.03;;
50429;SDS011;36359;41.556;-8.418;2023-04-21T07:25:44;13.13;;;5.55;;
50429;SDS011;36359;41.556;-8.418;2023-04-21T07:28:16;12.80;;;6.07;;
50429;SDS011;36359;41.556;-8.418;2023-04-21T07:30:43;11.85;;;6.70;;
50429;SDS011;36359;41.556;-8.418;2023-04-21T07:33:09;9.50;;;4.70;;
50429;SDS011;36359;41.556;-8.418;2023-04-21T07:35:36;10.30;;;4.87;;
50429;SDS011;36359;41.556;-8.418;2023-04-21T07:38:02;10.15;;;5.28;;
50429;SDS011;36359;41.556;-8.418;2023-04-21T07:40:27;8.80;;;6.13;;
50429;SDS011;36359;41.556;-8.418;2023-04-21T07:42:54;14.65;;;6.18;;
50429;SDS011;36359;41.556;-8.418;2023-04-21T07:45:20;8.37;;;4.17;;
50429;SDS011;36359;41.556;-8.418;2023-04-21T07:47:46;11.73;;;5.00;;
50429;SDS011;36359;41.556;-8.418;2023-04-21T07:50:11;7.50;;;4.65;;
50429;SDS011;36359;41.556;-8.418;2023-04-21T07:52:37;12.85;;;4.80;;
50429;SDS011;36359;41.556;-8.418;2023-04-21T07:55:03;8.60;;;4.00;;
50429;SDS011;36359;41.556;-8.418;2023-04-21T07:57:29;10.90;;;4.50;;
50429;SDS011;36359;41.556;-8.418;2023-04-21T07:59:58;7.00;;;4.05;;
50429;SDS011;36359;41.556;-8.418;2023-04-21T08:02:24;9.60;;;3.85;;
50429;SDS011;36359;41.556;-8.418;2023-04-21T08:04:50;13.27;;;5.30;;
50429;SDS011;36359;41.556;-8.418;2023-04-21T08:07:15;8.27;;;3.97;;
50429;SDS011;36359;41.556;-8.418;2023-04-21T08:09:41;7.40;;;3.67;;
50429;SDS011;36359;41.556;-8.418;2023-04-21T08:12:07;8.35;;;3.95;;
50429;SDS011;36359;41.556;-8.418;2023-04-21T08:14:33;9.60;;;4.65;;
50429;SDS011;36359;41.556;-8.418;2023-04-21T08:16:59;10.10;;;4.32;;
50429;SDS011;36359;41.556;-8.418;2023-04-21T08:19:29;7.63;;;3.25;;
50429;SDS011;36359;41.556;-8.418;2023-04-21T08:21:56;8.52;;;4.22;;
50429;SDS011;36359;41.556;-8.418;2023-04-21T08:24:23;9.00;;;3.78;;
50429;SDS011;36359;41.556;-8.418;2023-04-21T08:26:48;8.57;;;3.30;;
50429;SDS011;36359;41.556;-8.418;2023-04-21T08:29:14;8.43;;;3.15;;
50429;SDS011;36359;41.556;-8.418;2023-04-21T08:31:40;10.98;;;2.97;;
50429;SDS011;36359;41.556;-8.418;2023-04-21T08:34:06;8.38;;;2.10;;
50429;SDS011;36359;41.556;-8.418;2023-04-21T08:36:32;7.70;;;2.85;;
50429;SDS011;36359;41.556;-8.418;2023-04-21T08:38:58;5.38;;;3.13;;
50429;SDS011;36359;41.556;-8.418;2023-04-21T08:41:25;5.60;;;2.78;;
50429;SDS011;36359;41.556;-8.418;2023-04-21T08:43:50;6.85;;;3.28;;
50429;SDS011;36359;41.556;-8.418;2023-04-21T08:46:16;6.63;;;2.53;;
50429;SDS011;36359;41.556;-8.418;2023-04-21T08:48:43;6.75;;;2.67;;
50429;SDS011;36359;41.556;-8.418;2023-04-21T08:51:10;8.18;;;2.95;;
50429;SDS011;36359;41.556;-8.418;2023-04-21T08:53:45;10.90;;;2.50;;
50429;SDS011;36359;41.556;-8.418;2023-04-21T08:56:10;6.35;;;2.75;;
50429;SDS011;36359;41.556;-8.418;2023-04-21T08:58:36;5.50;;;2.53;;
50429;SDS011;36359;41.556;-8.418;2023-04-21T09:01:02;8.57;;;2.13;;
50429;SDS011;36359;41.556;-8.418;2023-04-21T09:03:28;6.05;;;2.40;;
50429;SDS011;36359;41.556;-8.418;2023-04-21T09:08:25;7.00;;;2.58;;
50429;SDS011;36359;41.556;-8.418;2023-04-21T09:10:54;6.60;;;2.55;;
50429;SDS011;36359;41.556;-8.418;2023-04-21T09:13:28;4.82;;;2.15;;
50429;SDS011;36359;41.556;-8.418;2023-04-21T09:15:56;9.43;;;2.53;;
50429;SDS011;36359;41.556;-8.418;2023-04-21T09:18:24;8.02;;;3.05;;
50429;SDS011;36359;41.556;-8.418;2023-04-21T09:23:41;6.75;;;2.50;;
50429;SDS011;36359;41.556;-8.418;2023-04-21T09:26:11;4.90;;;2.10;;
50429;SDS011;36359;41.556;-8.418;2023-04-21T09:28:42;8.73;;;3.33;;
50429;SDS011;36359;41.556;-8.418;2023-04-21T09:31:21;20.63;;;10.55;;
50429;SDS011;36359;41.556;-8.418;2023-04-21T09:33:54;8.90;;;2.92;;
50429;SDS011;36359;41.556;-8.418;2023-04-21T09:36:22;8.00;;;2.92;;
50429;SDS011;36359;41.556;-8.418;2023-04-21T09:41:19;9.85;;;3.05;;
50429;SDS011;36359;41.556;-8.418;2023-04-21T09:43:46;6.30;;;2.80;;
50429;SDS011;36359;41.556;-8.418;2023-04-21T09:46:13;7.47;;;2.38;;
50429;SDS011;36359;41.556;-8.418;2023-04-21T09:48:42;8.10;;;2.70;;
50429;SDS011;36359;41.556;-8.418;2023-04-21T09:51:10;10.32;;;2.50;;
50429;SDS011;36359;41.556;-8.418;2023-04-21T09:53:38;6.78;;;2.30;;
50429;SDS011;36359;41.556;-8.418;2023-04-21T09:56:05;7.22;;;2.65;;
50429;SDS011;36359;41.556;-8.418;2023-04-21T10:01:12;7.50;;;2.55;;
50429;SDS011;36359;41.556;-8.418;2023-04-21T10:03:40;9.13;;;3.08;;
50429;SDS011;36359;41.556;-8.418;2023-04-21T10:06:07;10.48;;;3.38;;
50429;SDS011;36359;41.556;-8.418;2023-04-21T10:08:34;8.98;;;2.60;;
50429;SDS011;36359;41.556;-8.418;2023-04-21T10:11:01;7.80;;;2.70;;
50429;SDS011;36359;41.556;-8.418;2023-04-21T10:13:29;6.57;;;2.72;;
50429;SDS011;36359;41.556;-8.418;2023-04-21T10:16:05;6.63;;;2.22;;
50429;SDS011;36359;41.556;-8.418;2023-04-21T10:18:34;7.63;;;2.70;;
50429;SDS011;36359;41.556;-8.418;2023-04-21T10:21:02;10.93;;;3.35;;
50429;SDS011;36359;41.556;-8.418;2023-04-21T10:23:38;7.13;;;2.50;;
50429;SDS011;36359;41.556;-8.418;2023-04-21T10:28:39;8.32;;;2.47;;
50429;SDS011;36359;41.556;-8.418;2023-04-21T10:31:18;13.60;;;2.75;;
50429;SDS011;36359;41.556;-8.418;2023-04-21T10:39:23;5.93;;;2.38;;
50429;SDS011;36359;41.556;-8.418;2023-04-21T10:44:43;7.13;;;2.40;;
50429;SDS011;36359;41.556;-8.418;2023-04-21T10:47:29;7.47;;;2.08;;
50429;SDS011;36359;41.556;-8.418;2023-04-21T10:49:58;6.70;;;2.72;;
50429;SDS011;36359;41.556;-8.418;2023-04-21T10:52:31;11.77;;;5.28;;
50429;SDS011;36359;41.556;-8.418;2023-04-21T10:57:26;8.95;;;2.80;;
50429;SDS011;36359;41.556;-8.418;2023-04-21T10:59:59;7.47;;;2.67;;
50429;SDS011;36359;41.556;-8.418;2023-04-21T11:02:25;8.82;;;2.60;;
50429;SDS011;36359;41.556;-8.418;2023-04-21T11:04:52;5.25;;;2.60;;
50429;SDS011;36359;41.556;-8.418;2023-04-21T11:07:38;7.35;;;2.58;;
50429;SDS011;36359;41.556;-8.418;2023-04-21T11:10:07;7.63;;;2.97;;
50429;SDS011;36359;41.556;-8.418;2023-04-21T11:12:36;4.20;;;2.20;;
50429;SDS011;36359;41.556;-8.418;2023-04-21T11:15:04;7.15;;;2.70;;
50429;SDS011;36359;41.556;-8.418;2023-04-21T11:17:32;7.45;;;2.90;;
50429;SDS011;36359;41.556;-8.418;2023-04-21T11:20:00;5.93;;;2.03;;
50429;SDS011;36359;41.556;-8.418;2023-04-21T11:22:28;6.43;;;2.30;;
50429;SDS011;36359;41.556;-8.418;2023-04-21T11:24:55;8.60;;;3.50;;
50429;SDS011;36359;41.556;-8.418;2023-04-21T11:27:22;9.88;;;3.60;;
50429;SDS011;36359;41.556;-8.418;2023-04-21T11:29:51;7.55;;;2.47;;
50429;SDS011;36359;41.556;-8.418;2023-04-21T11:32:17;7.57;;;3.05;;
50429;SDS011;36359;41.556;-8.418;2023-04-21T11:34:43;10.32;;;3.75;;
50429;SDS011;36359;41.556;-8.418;2023-04-21T11:37:12;8.43;;;2.78;;
50429;SDS011;36359;41.556;-8.418;2023-04-21T11:39:40;6.70;;;3.05;;
50429;SDS011;36359;41.556;-8.418;2023-04-21T11:42:08;7.28;;;2.95;;
50429;SDS011;36359;41.556;-8.418;2023-04-21T11:44:39;11.35;;;4.65;;
50429;SDS011;36359;41.556;-8.418;2023-04-21T11:47:19;8.30;;;3.03;;
50429;SDS011;36359;41.556;-8.418;2023-04-21T11:49:52;9.70;;;3.17;;
50429;SDS011;36359;41.556;-8.418;2023-04-21T11:54:59;9.35;;;3.63;;
50429;SDS011;36359;41.556;-8.418;2023-04-21T11:57:28;11.18;;;4.03;;
50429;SDS011;36359;41.556;-8.418;2023-04-21T11:59:58;8.30;;;3.67;;
50429;SDS011;36359;41.556;-8.418;2023-04-21T12:02:26;9.82;;;3.20;;
50429;SDS011;36359;41.556;-8.418;2023-04-21T12:07:30;4.35;;;2.38;;
50429;SDS011;36359;41.556;-8.418;2023-04-21T12:09:57;5.95;;;2.50;;
50429;SDS011;36359;41.556;-8.418;2023-04-21T12:12:24;5.50;;;2.65;;
50429;SDS011;36359;41.556;-8.418;2023-04-21T12:14:51;7.30;;;2.83;;
50429;SDS011;36359;41.556;-8.418;2023-04-21T12:17:17;6.68;;;2.60;;
50429;SDS011;36359;41.556;-8.418;2023-04-21T12:19:44;7.80;;;2.70;;
50429;SDS011;36359;41.556;-8.418;2023-04-21T12:22:11;9.82;;;4.18;;
50429;SDS011;36359;41.556;-8.418;2023-04-21T12:24:42;9.25;;;3.80;;
50429;SDS011;36359;41.556;-8.418;2023-04-21T12:27:09;7.65;;;4.63;;
50429;SDS011;36359;41.556;-8.418;2023-04-21T12:29:35;9.52;;;4.75;;
50429;SDS011;36359;41.556;-8.418;2023-04-21T12:32:05;12.52;;;6.53;;
50429;SDS011;36359;41.556;-8.418;2023-04-21T12:34:32;8.80;;;6.10;;
50429;SDS011;36359;41.556;-8.418;2023-04-21T12:36:58;10.10;;;4.90;;
50429;SDS011;36359;41.556;-8.418;2023-04-21T12:39:25;7.50;;;4.82;;
50429;SDS011;36359;41.556;-8.418;2023-04-21T12:41:50;12.02;;;5.53;;
50429;SDS011;36359;41.556;-8.418;2023-04-21T12:44:16;9.57;;;4.95;;
50429;SDS011;36359;41.556;-8.418;2023-04-21T12:46:42;13.27;;;6.30;;
50429;SDS011;36359;41.556;-8.418;2023-04-21T12:49:08;8.27;;;4.20;;
50429;SDS011;36359;41.556;-8.418;2023-04-21T12:51:35;8.32;;;4.05;;
50429;SDS011;36359;41.556;-8.418;2023-04-21T12:54:00;8.52;;;4.40;;
50429;SDS011;36359;41.556;-8.418;2023-04-21T12:56:26;10.27;;;4.45;;
50429;SDS011;36359;41.556;-8.418;2023-04-21T12:58:52;5.53;;;3.45;;
50429;SDS011;36359;41.556;-8.418;2023-04-21T13:01:20;12.85;;;3.80;;
50429;SDS011;36359;41.556;-8.418;2023-04-21T13:03:46;8.43;;;4.18;;
50429;SDS011;36359;41.556;-8.418;2023-04-21T13:06:11;6.57;;;3.85;;
50429;SDS011;36359;41.556;-8.418;2023-04-21T13:08:37;6.18;;;3.35;;
50429;SDS011;36359;41.556;-8.418;2023-04-21T13:11:03;5.47;;;3.42;;
50429;SDS011;36359;41.556;-8.418;2023-04-21T13:13:29;6.32;;;3.28;;
50429;SDS011;36359;41.556;-8.418;2023-04-21T13:15:55;4.85;;;3.05;;
50429;SDS011;36359;41.556;-8.418;2023-04-21T13:18:21;7.82;;;3.25;;
50429;SDS011;36359;41.556;-8.418;2023-04-21T13:20:47;6.93;;;3.25;;
50429;SDS011;36359;41.556;-8.418;2023-04-21T13:23:13;5.25;;;3.13;;
50429;SDS011;36359;41.556;-8.418;2023-04-21T13:25:40;7.85;;;3.78;;
50429;SDS011;36359;41.556;-8.418;2023-04-21T13:28:06;6.82;;;3.53;;
50429;SDS011;36359;41.556;-8.418;2023-04-21T13:30:32;12.40;;;5.35;;
50429;SDS011;36359;41.556;-8.418;2023-04-21T13:32:58;6.28;;;3.42;;
50429;SDS011;36359;41.556;-8.418;2023-04-21T13:35:24;36.20;;;19.45;;
50429;SDS011;36359;41.556;-8.418;2023-04-21T13:37:50;39.78;;;21.50;;
50429;SDS011;36359;41.556;-8.418;2023-04-21T13:40:16;29.25;;;14.85;;
50429;SDS011;36359;41.556;-8.418;2023-04-21T13:42:41;7.65;;;3.20;;
50429;SDS011;36359;41.556;-8.418;2023-04-21T13:45:07;4.47;;;1.90;;
50429;SDS011;36359;41.556;-8.418;2023-04-21T13:47:33;4.75;;;2.00;;
50429;SDS011;36359;41.556;-8.418;2023-04-21T13:50:00;5.60;;;1.83;;
50429;SDS011;36359;41.556;-8.418;2023-04-21T13:52:26;4.72;;;1.52;;
50429;SDS011;36359;41.556;-8.418;2023-04-21T13:54:52;3.90;;;1.88;;
50429;SDS011;36359;41.556;-8.418;2023-04-21T13:57:18;6.05;;;1.70;;
50429;SDS011;36359;41.556;-8.418;2023-04-21T13:59:45;5.00;;;1.80;;
50429;SDS011;36359;41.556;-8.418;2023-04-21T14:02:11;5.35;;;2.30;;
50429;SDS011;36359;41.556;-8.418;2023-04-21T14:04:36;6.72;;;2.40;;
50429;SDS011;36359;41.556;-8.418;2023-04-21T14:07:02;5.35;;;2.88;;
50429;SDS011;36359;41.556;-8.418;2023-04-21T14:09:29;5.03;;;2.53;;
50429;SDS011;36359;41.556;-8.418;2023-04-21T14:11:55;10.90;;;2.53;;
50429;SDS011;36359;41.556;-8.418;2023-04-21T14:14:21;5.57;;;2.33;;
50429;SDS011;36359;41.556;-8.418;2023-04-21T14:16:47;5.05;;;2.70;;
50429;SDS011;36359;41.556;-8.418;2023-04-21T14:19:14;6.70;;;2.90;;
50429;SDS011;36359;41.556;-8.418;2023-04-21T14:21:40;4.80;;;2.72;;
50429;SDS011;36359;41.556;-8.418;2023-04-21T14:24:06;5.65;;;2.92;;
50429;SDS011;36359;41.556;-8.418;2023-04-21T14:26:32;5.50;;;2.65;;
50429;SDS011;36359;41.556;-8.418;2023-04-21T14:28:58;4.88;;;2.67;;
50429;SDS011;36359;41.556;-8.418;2023-04-21T14:31:25;3.88;;;1.90;;
50429;SDS011;36359;41.556;-8.418;2023-04-21T14:33:54;5.72;;;2.10;;
50429;SDS011;36359;41.556;-8.418;2023-04-21T14:36:20;5.30;;;1.50;;
50429;SDS011;36359;41.556;-8.418;2023-04-21T14:38:46;6.43;;;1.30;;
50429;SDS011;36359;41.556;-8.418;2023-04-21T14:41:12;4.88;;;1.90;;
50429;SDS011;36359;41.556;-8.418;2023-04-21T14:43:37;5.10;;;2.15;;
50429;SDS011;36359;41.556;-8.418;2023-04-21T14:46:03;4.20;;;2.35;;
50429;SDS011;36359;41.556;-8.418;2023-04-21T14:48:29;3.67;;;1.65;;
50429;SDS011;36359;41.556;-8.418;2023-04-21T14:50:55;3.80;;;1.90;;
50429;SDS011;36359;41.556;-8.418;2023-04-21T14:53:24;3.35;;;2.10;;
50429;SDS011;36359;41.556;-8.418;2023-04-21T14:55:52;4.63;;;1.90;;
50429;SDS011;36359;41.556;-8.418;2023-04-21T14:58:18;6.05;;;2.20;;
50429;SDS011;36359;41.556;-8.418;2023-04-21T15:00:44;4.72;;;1.85;;
50429;SDS011;36359;41.556;-8.418;2023-04-21T15:03:09;5.78;;;2.38;;
50429;SDS011;36359;41.556;-8.418;2023-04-21T15:05:35;5.22;;;1.50;;
50429;SDS011;36359;41.556;-8.418;2023-04-21T15:08:01;3.17;;;1.38;;
50429;SDS011;36359;41.556;-8.418;2023-04-21T15:10:27;4.05;;;1.90;;